Terminal Aerodrome Forecast
Issued by NWS

Home | Current Version | Previous Version | Text Only | Print | Product List | Glossary Off
Versions: 1 2 3 4 5 6 7 8 9 10 11 12 13 14 15 16

932
FTUS43 KBIS 042320
TAFDIK
TAF
KDIK 042320Z 0500/0524 24007KT P6SM BKN090
     FM050300 23006KT P6SM VCSH OVC030
     FM050900 29009KT P6SM VCSH OVC015
     FM051100 31010KT P6SM OVC008
     FM051700 29013KT P6SM BKN050
     FM051800 29013KT P6SM SCT100=

USA.gov is the U.S. government's official web portal to all federal, state and local government web resources and services.